Calvin, West Virginia
Current Conditions -  °F | °C
As of 7:55 PM on Monday 26 Jan 2015 (Local Time) from KLWB Reporting Station
Overcast Overcast  
Wind Chill: 21°   Ceiling: 1800
Heat Index: 28°   Visibility: 10mi
Dew Point: 22°   Wind: 6mph
Humidity: 80%   Direction: 290°WNW
Pressure: 29.75"   Gusts: NA
Location:  38.34°N, 80.72°W
Report Text: KLWB 270055Z AUTO 29005KT 10SM OVC018 M02/M05 A2975 RMK AO2 T10251055
Loading
Personal Weather Stations






























Interactive Weather Map New forecast layout! Learn more

10-Day Weather Forecast

Advertisements
Track Severe Weather on mobile